sensor_id;sensor_type;location;lat;lon;timestamp;P1;durP1;ratioP1;P2;durP2;ratioP2
74791;SDS011;63319;46.046;17.802;2023-12-28T00:00:00;37.30;;;18.60;;
74791;SDS011;63319;46.046;17.802;2023-12-28T00:03:05;35.53;;;18.20;;
74791;SDS011;63319;46.046;17.802;2023-12-28T00:06:08;33.28;;;16.58;;
74791;SDS011;63319;46.046;17.802;2023-12-28T00:09:12;38.38;;;16.70;;
74791;SDS011;63319;46.046;17.802;2023-12-28T00:12:15;29.08;;;15.68;;
74791;SDS011;63319;46.046;17.802;2023-12-28T00:15:18;31.25;;;16.85;;
74791;SDS011;63319;46.046;17.802;2023-12-28T00:18:21;30.27;;;16.75;;
74791;SDS011;63319;46.046;17.802;2023-12-28T00:21:25;35.13;;;16.73;;
74791;SDS011;63319;46.046;17.802;2023-12-28T00:24:28;33.38;;;17.13;;
74791;SDS011;63319;46.046;17.802;2023-12-28T00:27:31;34.28;;;17.20;;
74791;SDS011;63319;46.046;17.802;2023-12-28T00:30:36;31.70;;;17.30;;
74791;SDS011;63319;46.046;17.802;2023-12-28T00:33:40;36.17;;;16.50;;
74791;SDS011;63319;46.046;17.802;2023-12-28T00:36:43;32.60;;;17.05;;
74791;SDS011;63319;46.046;17.802;2023-12-28T00:39:46;34.28;;;17.42;;
74791;SDS011;63319;46.046;17.802;2023-12-28T00:42:49;37.70;;;18.10;;
74791;SDS011;63319;46.046;17.802;2023-12-28T00:45:52;38.10;;;18.50;;
74791;SDS011;63319;46.046;17.802;2023-12-28T00:48:56;37.10;;;19.67;;
74791;SDS011;63319;46.046;17.802;2023-12-28T00:51:58;37.00;;;19.67;;
74791;SDS011;63319;46.046;17.802;2023-12-28T00:55:02;35.25;;;20.92;;
74791;SDS011;63319;46.046;17.802;2023-12-28T00:58:05;34.72;;;20.33;;
74791;SDS011;63319;46.046;17.802;2023-12-28T01:01:08;43.17;;;22.33;;
74791;SDS011;63319;46.046;17.802;2023-12-28T01:04:12;40.17;;;20.50;;
74791;SDS011;63319;46.046;17.802;2023-12-28T01:07:16;36.83;;;18.45;;
74791;SDS011;63319;46.046;17.802;2023-12-28T01:10:19;30.35;;;16.02;;
74791;SDS011;63319;46.046;17.802;2023-12-28T01:13:23;37.97;;;16.63;;
74791;SDS011;63319;46.046;17.802;2023-12-28T01:16:26;32.97;;;17.17;;
74791;SDS011;63319;46.046;17.802;2023-12-28T01:19:29;34.63;;;16.65;;
74791;SDS011;63319;46.046;17.802;2023-12-28T01:22:32;34.23;;;17.20;;
74791;SDS011;63319;46.046;17.802;2023-12-28T01:25:35;34.00;;;16.85;;
74791;SDS011;63319;46.046;17.802;2023-12-28T01:28:38;34.80;;;17.38;;
74791;SDS011;63319;46.046;17.802;2023-12-28T01:31:41;42.83;;;18.47;;
74791;SDS011;63319;46.046;17.802;2023-12-28T01:34:45;35.15;;;19.75;;
74791;SDS011;63319;46.046;17.802;2023-12-28T01:37:48;40.72;;;21.40;;
74791;SDS011;63319;46.046;17.802;2023-12-28T01:40:51;43.33;;;20.88;;
74791;SDS011;63319;46.046;17.802;2023-12-28T01:43:58;51.05;;;24.92;;
74791;SDS011;63319;46.046;17.802;2023-12-28T01:47:00;47.58;;;24.83;;
74791;SDS011;63319;46.046;17.802;2023-12-28T01:50:05;42.10;;;21.63;;
74791;SDS011;63319;46.046;17.802;2023-12-28T01:53:08;44.37;;;22.70;;
74791;SDS011;63319;46.046;17.802;2023-12-28T01:56:13;47.47;;;23.83;;
74791;SDS011;63319;46.046;17.802;2023-12-28T01:59:16;50.70;;;24.48;;
74791;SDS011;63319;46.046;17.802;2023-12-28T02:02:22;43.73;;;21.97;;
74791;SDS011;63319;46.046;17.802;2023-12-28T02:05:25;43.85;;;22.63;;
74791;SDS011;63319;46.046;17.802;2023-12-28T02:08:28;40.10;;;20.15;;
74791;SDS011;63319;46.046;17.802;2023-12-28T02:11:31;44.97;;;20.08;;
74791;SDS011;63319;46.046;17.802;2023-12-28T02:14:34;39.60;;;21.35;;
74791;SDS011;63319;46.046;17.802;2023-12-28T02:17:41;38.80;;;20.77;;
74791;SDS011;63319;46.046;17.802;2023-12-28T02:20:49;40.70;;;21.02;;
74791;SDS011;63319;46.046;17.802;2023-12-28T02:23:53;37.77;;;18.83;;
74791;SDS011;63319;46.046;17.802;2023-12-28T02:26:56;43.67;;;19.40;;
74791;SDS011;63319;46.046;17.802;2023-12-28T02:29:59;57.05;;;25.02;;
74791;SDS011;63319;46.046;17.802;2023-12-28T02:36:39;48.70;;;24.10;;
74791;SDS011;63319;46.046;17.802;2023-12-28T02:39:47;33.20;;;18.00;;
74791;SDS011;63319;46.046;17.802;2023-12-28T02:42:53;33.33;;;16.95;;
74791;SDS011;63319;46.046;17.802;2023-12-28T02:45:56;31.80;;;16.73;;
74791;SDS011;63319;46.046;17.802;2023-12-28T02:48:58;35.08;;;20.27;;
74791;SDS011;63319;46.046;17.802;2023-12-28T02:52:02;42.55;;;20.98;;
74791;SDS011;63319;46.046;17.802;2023-12-28T02:55:05;40.30;;;19.73;;
74791;SDS011;63319;46.046;17.802;2023-12-28T02:58:09;40.88;;;22.27;;
74791;SDS011;63319;46.046;17.802;2023-12-28T03:01:12;43.75;;;22.73;;
74791;SDS011;63319;46.046;17.802;2023-12-28T03:04:15;38.37;;;20.53;;
74791;SDS011;63319;46.046;17.802;2023-12-28T03:07:18;36.90;;;19.92;;
74791;SDS011;63319;46.046;17.802;2023-12-28T03:10:21;34.83;;;19.38;;
74791;SDS011;63319;46.046;17.802;2023-12-28T03:13:24;46.80;;;22.92;;
74791;SDS011;63319;46.046;17.802;2023-12-28T03:16:27;40.97;;;21.00;;
74791;SDS011;63319;46.046;17.802;2023-12-28T03:19:30;45.78;;;22.10;;
74791;SDS011;63319;46.046;17.802;2023-12-28T03:22:34;47.17;;;23.58;;
74791;SDS011;63319;46.046;17.802;2023-12-28T03:25:37;48.73;;;23.27;;
74791;SDS011;63319;46.046;17.802;2023-12-28T03:28:42;49.95;;;23.73;;
74791;SDS011;63319;46.046;17.802;2023-12-28T03:31:45;51.60;;;24.15;;
74791;SDS011;63319;46.046;17.802;2023-12-28T03:34:48;40.80;;;20.87;;
74791;SDS011;63319;46.046;17.802;2023-12-28T03:37:51;48.53;;;22.60;;
74791;SDS011;63319;46.046;17.802;2023-12-28T03:40:54;45.83;;;21.85;;
74791;SDS011;63319;46.046;17.802;2023-12-28T03:43:57;42.88;;;21.67;;
74791;SDS011;63319;46.046;17.802;2023-12-28T03:47:01;46.70;;;22.35;;
74791;SDS011;63319;46.046;17.802;2023-12-28T03:50:04;49.47;;;24.23;;
74791;SDS011;63319;46.046;17.802;2023-12-28T03:53:09;53.63;;;26.45;;
74791;SDS011;63319;46.046;17.802;2023-12-28T03:56:21;49.77;;;24.83;;
74791;SDS011;63319;46.046;17.802;2023-12-28T03:59:28;49.83;;;26.15;;
74791;SDS011;63319;46.046;17.802;2023-12-28T04:02:31;47.47;;;24.85;;
74791;SDS011;63319;46.046;17.802;2023-12-28T04:05:35;42.63;;;20.33;;
74791;SDS011;63319;46.046;17.802;2023-12-28T04:08:39;38.58;;;20.20;;
74791;SDS011;63319;46.046;17.802;2023-12-28T04:11:43;39.45;;;21.08;;
74791;SDS011;63319;46.046;17.802;2023-12-28T04:14:46;45.35;;;22.27;;
74791;SDS011;63319;46.046;17.802;2023-12-28T04:17:50;44.38;;;23.25;;
74791;SDS011;63319;46.046;17.802;2023-12-28T04:20:53;47.88;;;22.73;;
74791;SDS011;63319;46.046;17.802;2023-12-28T04:23:56;44.17;;;21.92;;
74791;SDS011;63319;46.046;17.802;2023-12-28T04:26:59;39.03;;;20.20;;
74791;SDS011;63319;46.046;17.802;2023-12-28T04:30:02;40.83;;;22.80;;
74791;SDS011;63319;46.046;17.802;2023-12-28T04:33:05;41.45;;;22.00;;
74791;SDS011;63319;46.046;17.802;2023-12-28T04:36:08;39.63;;;20.13;;
74791;SDS011;63319;46.046;17.802;2023-12-28T04:39:11;45.78;;;21.60;;
74791;SDS011;63319;46.046;17.802;2023-12-28T04:42:15;36.63;;;19.00;;
74791;SDS011;63319;46.046;17.802;2023-12-28T04:45:18;37.00;;;19.27;;
74791;SDS011;63319;46.046;17.802;2023-12-28T04:48:21;36.50;;;18.65;;
74791;SDS011;63319;46.046;17.802;2023-12-28T04:51:27;39.33;;;19.92;;
74791;SDS011;63319;46.046;17.802;2023-12-28T04:54:30;42.38;;;19.95;;
74791;SDS011;63319;46.046;17.802;2023-12-28T04:57:35;34.77;;;18.53;;
74791;SDS011;63319;46.046;17.802;2023-12-28T05:00:38;36.97;;;19.13;;
74791;SDS011;63319;46.046;17.802;2023-12-28T05:03:42;34.55;;;20.27;;
74791;SDS011;63319;46.046;17.802;2023-12-28T05:06:44;38.40;;;20.20;;
74791;SDS011;63319;46.046;17.802;2023-12-28T05:09:48;37.60;;;18.75;;
74791;SDS011;63319;46.046;17.802;2023-12-28T05:12:51;37.97;;;19.13;;
74791;SDS011;63319;46.046;17.802;2023-12-28T05:15:55;42.08;;;20.92;;
74791;SDS011;63319;46.046;17.802;2023-12-28T05:18:58;41.53;;;20.83;;
74791;SDS011;63319;46.046;17.802;2023-12-28T05:22:01;44.67;;;20.95;;
74791;SDS011;63319;46.046;17.802;2023-12-28T05:25:09;38.53;;;21.80;;
74791;SDS011;63319;46.046;17.802;2023-12-28T05:28:12;37.80;;;19.27;;
74791;SDS011;63319;46.046;17.802;2023-12-28T05:31:15;42.08;;;20.17;;
74791;SDS011;63319;46.046;17.802;2023-12-28T05:34:18;39.30;;;21.15;;
74791;SDS011;63319;46.046;17.802;2023-12-28T05:37:21;41.13;;;18.77;;
74791;SDS011;63319;46.046;17.802;2023-12-28T05:40:24;41.08;;;20.48;;
74791;SDS011;63319;46.046;17.802;2023-12-28T05:43:27;42.63;;;21.70;;
74791;SDS011;63319;46.046;17.802;2023-12-28T05:46:30;41.28;;;20.75;;
74791;SDS011;63319;46.046;17.802;2023-12-28T05:49:33;38.85;;;18.65;;
74791;SDS011;63319;46.046;17.802;2023-12-28T05:52:36;36.60;;;19.58;;
74791;SDS011;63319;46.046;17.802;2023-12-28T05:55:40;39.40;;;19.88;;
74791;SDS011;63319;46.046;17.802;2023-12-28T05:58:43;40.97;;;22.37;;
74791;SDS011;63319;46.046;17.802;2023-12-28T06:01:46;46.58;;;22.67;;
74791;SDS011;63319;46.046;17.802;2023-12-28T06:04:50;46.00;;;22.27;;
74791;SDS011;63319;46.046;17.802;2023-12-28T06:07:53;59.67;;;25.40;;
74791;SDS011;63319;46.046;17.802;2023-12-28T06:10:56;44.05;;;22.90;;
74791;SDS011;63319;46.046;17.802;2023-12-28T06:13:59;40.55;;;20.42;;
74791;SDS011;63319;46.046;17.802;2023-12-28T06:17:02;42.85;;;20.77;;
74791;SDS011;63319;46.046;17.802;2023-12-28T06:20:06;44.55;;;21.13;;
74791;SDS011;63319;46.046;17.802;2023-12-28T06:23:10;37.20;;;20.75;;
74791;SDS011;63319;46.046;17.802;2023-12-28T06:26:13;39.05;;;20.20;;
74791;SDS011;63319;46.046;17.802;2023-12-28T06:29:16;35.93;;;19.17;;
74791;SDS011;63319;46.046;17.802;2023-12-28T06:32:19;36.30;;;20.17;;
74791;SDS011;63319;46.046;17.802;2023-12-28T06:35:26;38.28;;;20.55;;
74791;SDS011;63319;46.046;17.802;2023-12-28T06:38:29;48.20;;;22.97;;
74791;SDS011;63319;46.046;17.802;2023-12-28T06:41:34;54.78;;;29.65;;
74791;SDS011;63319;46.046;17.802;2023-12-28T06:44:37;63.53;;;37.45;;
74791;SDS011;63319;46.046;17.802;2023-12-28T06:47:40;62.00;;;32.80;;
74791;SDS011;63319;46.046;17.802;2023-12-28T06:50:43;50.60;;;27.20;;
74791;SDS011;63319;46.046;17.802;2023-12-28T06:53:46;42.20;;;23.63;;
74791;SDS011;63319;46.046;17.802;2023-12-28T06:56:51;43.90;;;21.25;;
74791;SDS011;63319;46.046;17.802;2023-12-28T06:59:54;45.87;;;22.53;;
74791;SDS011;63319;46.046;17.802;2023-12-28T07:02:58;43.90;;;23.30;;
74791;SDS011;63319;46.046;17.802;2023-12-28T07:06:02;37.00;;;19.50;;
74791;SDS011;63319;46.046;17.802;2023-12-28T07:09:08;41.23;;;19.63;;
74791;SDS011;63319;46.046;17.802;2023-12-28T07:12:11;38.47;;;19.77;;
74791;SDS011;63319;46.046;17.802;2023-12-28T07:15:13;39.67;;;20.95;;
74791;SDS011;63319;46.046;17.802;2023-12-28T07:18:17;35.45;;;18.48;;
74791;SDS011;63319;46.046;17.802;2023-12-28T07:21:20;29.80;;;17.63;;
74791;SDS011;63319;46.046;17.802;2023-12-28T07:24:23;29.58;;;17.90;;
74791;SDS011;63319;46.046;17.802;2023-12-28T07:27:26;29.27;;;15.35;;
74791;SDS011;63319;46.046;17.802;2023-12-28T07:30:30;26.83;;;15.13;;
74791;SDS011;63319;46.046;17.802;2023-12-28T07:33:33;29.13;;;15.93;;
74791;SDS011;63319;46.046;17.802;2023-12-28T07:36:36;28.20;;;14.80;;
74791;SDS011;63319;46.046;17.802;2023-12-28T07:39:40;26.03;;;14.40;;
74791;SDS011;63319;46.046;17.802;2023-12-28T07:42:43;23.30;;;13.00;;
74791;SDS011;63319;46.046;17.802;2023-12-28T07:45:46;23.95;;;13.27;;
74791;SDS011;63319;46.046;17.802;2023-12-28T07:48:49;24.65;;;13.38;;
74791;SDS011;63319;46.046;17.802;2023-12-28T07:51:52;24.33;;;14.32;;
74791;SDS011;63319;46.046;17.802;2023-12-28T07:54:55;24.92;;;14.25;;
74791;SDS011;63319;46.046;17.802;2023-12-28T07:57:58;22.65;;;13.95;;
74791;SDS011;63319;46.046;17.802;2023-12-28T08:01:02;20.23;;;13.03;;
74791;SDS011;63319;46.046;17.802;2023-12-28T08:04:05;23.42;;;12.95;;
74791;SDS011;63319;46.046;17.802;2023-12-28T08:07:08;24.70;;;13.57;;
74791;SDS011;63319;46.046;17.802;2023-12-28T08:10:11;29.85;;;15.23;;
74791;SDS011;63319;46.046;17.802;2023-12-28T08:13:14;26.33;;;13.33;;
74791;SDS011;63319;46.046;17.802;2023-12-28T08:16:20;28.23;;;13.05;;
74791;SDS011;63319;46.046;17.802;2023-12-28T08:19:23;26.65;;;13.75;;
74791;SDS011;63319;46.046;17.802;2023-12-28T08:22:26;24.13;;;13.20;;
74791;SDS011;63319;46.046;17.802;2023-12-28T08:25:30;28.20;;;13.20;;
74791;SDS011;63319;46.046;17.802;2023-12-28T08:28:33;20.90;;;12.20;;
74791;SDS011;63319;46.046;17.802;2023-12-28T08:31:36;20.52;;;12.27;;
74791;SDS011;63319;46.046;17.802;2023-12-28T08:34:40;20.27;;;12.70;;
74791;SDS011;63319;46.046;17.802;2023-12-28T08:37:43;22.20;;;12.07;;
74791;SDS011;63319;46.046;17.802;2023-12-28T08:40:48;17.67;;;11.60;;
74791;SDS011;63319;46.046;17.802;2023-12-28T08:43:51;21.00;;;11.98;;
74791;SDS011;63319;46.046;17.802;2023-12-28T08:46:56;20.73;;;12.15;;
74791;SDS011;63319;46.046;17.802;2023-12-28T08:49:59;21.02;;;12.13;;
74791;SDS011;63319;46.046;17.802;2023-12-28T08:53:02;22.43;;;11.50;;
74791;SDS011;63319;46.046;17.802;2023-12-28T08:56:27;20.92;;;12.63;;
74791;SDS011;63319;46.046;17.802;2023-12-28T08:59:29;22.10;;;12.63;;
74791;SDS011;63319;46.046;17.802;2023-12-28T09:02:32;17.85;;;11.90;;
74791;SDS011;63319;46.046;17.802;2023-12-28T09:05:35;18.38;;;12.07;;
74791;SDS011;63319;46.046;17.802;2023-12-28T09:08:40;19.37;;;11.60;;
74791;SDS011;63319;46.046;17.802;2023-12-28T09:11:45;19.95;;;11.35;;
74791;SDS011;63319;46.046;17.802;2023-12-28T09:14:48;33.50;;;20.83;;
74791;SDS011;63319;46.046;17.802;2023-12-28T09:17:51;33.35;;;21.92;;
74791;SDS011;63319;46.046;17.802;2023-12-28T09:20:54;41.60;;;24.13;;
74791;SDS011;63319;46.046;17.802;2023-12-28T09:23:57;32.23;;;20.67;;
74791;SDS011;63319;46.046;17.802;2023-12-28T09:27:00;27.23;;;18.92;;
74791;SDS011;63319;46.046;17.802;2023-12-28T09:30:03;32.85;;;19.90;;
74791;SDS011;63319;46.046;17.802;2023-12-28T09:33:07;29.27;;;20.23;;
74791;SDS011;63319;46.046;17.802;2023-12-28T09:36:10;29.17;;;18.05;;
74791;SDS011;63319;46.046;17.802;2023-12-28T09:39:15;22.07;;;14.17;;
74791;SDS011;63319;46.046;17.802;2023-12-28T09:42:25;18.80;;;11.07;;
74791;SDS011;63319;46.046;17.802;2023-12-28T09:45:31;17.88;;;11.07;;
74791;SDS011;63319;46.046;17.802;2023-12-28T09:48:34;16.48;;;10.23;;
74791;SDS011;63319;46.046;17.802;2023-12-28T09:51:39;16.97;;;9.70;;
74791;SDS011;63319;46.046;17.802;2023-12-28T09:54:42;18.10;;;10.02;;
74791;SDS011;63319;46.046;17.802;2023-12-28T09:57:45;19.15;;;9.15;;
74791;SDS011;63319;46.046;17.802;2023-12-28T10:00:49;21.20;;;11.00;;
74791;SDS011;63319;46.046;17.802;2023-12-28T10:03:53;21.97;;;12.80;;
74791;SDS011;63319;46.046;17.802;2023-12-28T10:06:56;23.10;;;12.63;;
74791;SDS011;63319;46.046;17.802;2023-12-28T10:10:00;24.75;;;12.23;;
74791;SDS011;63319;46.046;17.802;2023-12-28T10:13:04;27.73;;;12.63;;
74791;SDS011;63319;46.046;17.802;2023-12-28T10:16:10;21.97;;;11.03;;
74791;SDS011;63319;46.046;17.802;2023-12-28T10:19:14;21.60;;;10.80;;
74791;SDS011;63319;46.046;17.802;2023-12-28T10:22:17;13.35;;;8.30;;
74791;SDS011;63319;46.046;17.802;2023-12-28T10:25:20;8.90;;;3.83;;
74791;SDS011;63319;46.046;17.802;2023-12-28T10:28:24;9.23;;;3.40;;
74791;SDS011;63319;46.046;17.802;2023-12-28T10:31:27;8.65;;;3.03;;
74791;SDS011;63319;46.046;17.802;2023-12-28T10:34:31;7.55;;;3.00;;
74791;SDS011;63319;46.046;17.802;2023-12-28T10:37:35;8.80;;;2.93;;
74791;SDS011;63319;46.046;17.802;2023-12-28T10:40:38;8.55;;;3.22;;
74791;SDS011;63319;46.046;17.802;2023-12-28T10:44:03;19.30;;;8.52;;
74791;SDS011;63319;46.046;17.802;2023-12-28T10:47:14;10.23;;;5.20;;
74791;SDS011;63319;46.046;17.802;2023-12-28T10:50:21;8.10;;;3.70;;
74791;SDS011;63319;46.046;17.802;2023-12-28T10:53:45;7.93;;;3.10;;
74791;SDS011;63319;46.046;17.802;2023-12-28T10:57:06;13.35;;;3.78;;
74791;SDS011;63319;46.046;17.802;2023-12-28T11:00:30;5.93;;;2.50;;
74791;SDS011;63319;46.046;17.802;2023-12-28T11:03:37;7.83;;;2.77;;
74791;SDS011;63319;46.046;17.802;2023-12-28T11:06:43;6.57;;;2.92;;
74791;SDS011;63319;46.046;17.802;2023-12-28T11:09:47;7.20;;;3.47;;
74791;SDS011;63319;46.046;17.802;2023-12-28T11:12:54;9.95;;;3.13;;
74791;SDS011;63319;46.046;17.802;2023-12-28T11:15:59;8.40;;;3.60;;
74791;SDS011;63319;46.046;17.802;2023-12-28T11:19:03;9.13;;;3.13;;
74791;SDS011;63319;46.046;17.802;2023-12-28T11:22:08;9.50;;;3.35;;
74791;SDS011;63319;46.046;17.802;2023-12-28T11:25:18;8.10;;;3.15;;
74791;SDS011;63319;46.046;17.802;2023-12-28T11:28:23;5.80;;;2.85;;
74791;SDS011;63319;46.046;17.802;2023-12-28T11:31:26;8.27;;;2.93;;
74791;SDS011;63319;46.046;17.802;2023-12-28T11:34:30;7.37;;;3.33;;
74791;SDS011;63319;46.046;17.802;2023-12-28T11:37:36;7.35;;;3.53;;
74791;SDS011;63319;46.046;17.802;2023-12-28T11:40:42;8.18;;;3.22;;
74791;SDS011;63319;46.046;17.802;2023-12-28T11:43:55;12.95;;;4.85;;
74791;SDS011;63319;46.046;17.802;2023-12-28T11:46:58;8.43;;;3.20;;
74791;SDS011;63319;46.046;17.802;2023-12-28T11:50:08;8.07;;;4.03;;
74791;SDS011;63319;46.046;17.802;2023-12-28T11:53:12;10.38;;;6.03;;
74791;SDS011;63319;46.046;17.802;2023-12-28T11:56:15;7.25;;;3.60;;
74791;SDS011;63319;46.046;17.802;2023-12-28T11:59:19;9.70;;;4.05;;
74791;SDS011;63319;46.046;17.802;2023-12-28T12:02:23;11.43;;;3.80;;
74791;SDS011;63319;46.046;17.802;2023-12-28T12:05:29;7.73;;;3.17;;
74791;SDS011;63319;46.046;17.802;2023-12-28T12:08:32;6.78;;;3.08;;
74791;SDS011;63319;46.046;17.802;2023-12-28T12:11:35;8.20;;;3.22;;
74791;SDS011;63319;46.046;17.802;2023-12-28T12:14:40;8.63;;;3.55;;
74791;SDS011;63319;46.046;17.802;2023-12-28T12:17:42;10.10;;;5.17;;
74791;SDS011;63319;46.046;17.802;2023-12-28T12:20:45;7.63;;;3.50;;
74791;SDS011;63319;46.046;17.802;2023-12-28T12:23:49;11.48;;;3.80;;
74791;SDS011;63319;46.046;17.802;2023-12-28T12:26:53;6.68;;;2.97;;
74791;SDS011;63319;46.046;17.802;2023-12-28T12:29:56;9.70;;;4.13;;
74791;SDS011;63319;46.046;17.802;2023-12-28T12:32:59;7.07;;;3.23;;
74791;SDS011;63319;46.046;17.802;2023-12-28T12:36:02;8.13;;;3.70;;
74791;SDS011;63319;46.046;17.802;2023-12-28T12:39:06;9.65;;;4.20;;
74791;SDS011;63319;46.046;17.802;2023-12-28T12:42:13;8.43;;;4.05;;
74791;SDS011;63319;46.046;17.802;2023-12-28T12:45:16;8.05;;;4.53;;
74791;SDS011;63319;46.046;17.802;2023-12-28T12:48:20;10.53;;;4.77;;
74791;SDS011;63319;46.046;17.802;2023-12-28T12:51:26;16.07;;;8.97;;
74791;SDS011;63319;46.046;17.802;2023-12-28T12:54:30;10.18;;;5.20;;
74791;SDS011;63319;46.046;17.802;2023-12-28T12:57:32;11.20;;;5.60;;
74791;SDS011;63319;46.046;17.802;2023-12-28T13:00:36;12.52;;;5.80;;
74791;SDS011;63319;46.046;17.802;2023-12-28T13:03:39;10.03;;;4.97;;
74791;SDS011;63319;46.046;17.802;2023-12-28T13:06:43;7.80;;;4.47;;
74791;SDS011;63319;46.046;17.802;2023-12-28T13:09:46;8.30;;;4.25;;
74791;SDS011;63319;46.046;17.802;2023-12-28T13:12:49;22.80;;;10.70;;
74791;SDS011;63319;46.046;17.802;2023-12-28T13:15:52;18.83;;;9.35;;
74791;SDS011;63319;46.046;17.802;2023-12-28T13:18:56;24.30;;;12.57;;
74791;SDS011;63319;46.046;17.802;2023-12-28T13:21:59;20.30;;;11.00;;
74791;SDS011;63319;46.046;17.802;2023-12-28T13:25:03;35.05;;;18.52;;
74791;SDS011;63319;46.046;17.802;2023-12-28T13:28:07;24.67;;;12.80;;
74791;SDS011;63319;46.046;17.802;2023-12-28T13:31:11;18.33;;;11.65;;
74791;SDS011;63319;46.046;17.802;2023-12-28T13:34:15;10.97;;;6.97;;
74791;SDS011;63319;46.046;17.802;2023-12-28T13:37:18;9.33;;;5.00;;
74791;SDS011;63319;46.046;17.802;2023-12-28T13:40:21;11.65;;;4.45;;
74791;SDS011;63319;46.046;17.802;2023-12-28T13:43:24;9.18;;;3.35;;
74791;SDS011;63319;46.046;17.802;2023-12-28T13:46:27;8.60;;;3.17;;
74791;SDS011;63319;46.046;17.802;2023-12-28T13:49:30;7.53;;;3.40;;
74791;SDS011;63319;46.046;17.802;2023-12-28T13:52:33;7.63;;;2.83;;
74791;SDS011;63319;46.046;17.802;2023-12-28T13:55:36;7.13;;;4.07;;
74791;SDS011;63319;46.046;17.802;2023-12-28T13:58:39;7.35;;;3.45;;
74791;SDS011;63319;46.046;17.802;2023-12-28T14:01:42;7.60;;;3.55;;
74791;SDS011;63319;46.046;17.802;2023-12-28T14:04:45;8.77;;;4.73;;
74791;SDS011;63319;46.046;17.802;2023-12-28T14:07:48;12.10;;;6.70;;
74791;SDS011;63319;46.046;17.802;2023-12-28T14:10:52;8.88;;;3.83;;
74791;SDS011;63319;46.046;17.802;2023-12-28T14:13:54;17.93;;;7.53;;
74791;SDS011;63319;46.046;17.802;2023-12-28T14:16:58;8.90;;;4.65;;
74791;SDS011;63319;46.046;17.802;2023-12-28T14:20:01;8.60;;;4.45;;
74791;SDS011;63319;46.046;17.802;2023-12-28T14:23:05;13.43;;;4.50;;
74791;SDS011;63319;46.046;17.802;2023-12-28T14:26:14;8.90;;;4.10;;
74791;SDS011;63319;46.046;17.802;2023-12-28T14:29:18;8.50;;;4.35;;
74791;SDS011;63319;46.046;17.802;2023-12-28T14:32:21;8.82;;;4.30;;
74791;SDS011;63319;46.046;17.802;2023-12-28T14:35:24;12.27;;;6.25;;
74791;SDS011;63319;46.046;17.802;2023-12-28T14:38:27;10.30;;;5.10;;
74791;SDS011;63319;46.046;17.802;2023-12-28T14:41:31;9.85;;;5.35;;
74791;SDS011;63319;46.046;17.802;2023-12-28T14:44:39;16.08;;;8.35;;
74791;SDS011;63319;46.046;17.802;2023-12-28T14:47:42;21.43;;;11.60;;
74791;SDS011;63319;46.046;17.802;2023-12-28T14:50:45;22.58;;;10.38;;
74791;SDS011;63319;46.046;17.802;2023-12-28T14:53:48;21.70;;;11.50;;
74791;SDS011;63319;46.046;17.802;2023-12-28T14:56:51;22.37;;;13.40;;
74791;SDS011;63319;46.046;17.802;2023-12-28T14:59:57;26.63;;;16.73;;
74791;SDS011;63319;46.046;17.802;2023-12-28T15:03:00;33.20;;;18.88;;
74791;SDS011;63319;46.046;17.802;2023-12-28T15:06:03;33.95;;;20.23;;
74791;SDS011;63319;46.046;17.802;2023-12-28T15:09:06;34.38;;;16.80;;
74791;SDS011;63319;46.046;17.802;2023-12-28T15:12:11;32.45;;;17.02;;
74791;SDS011;63319;46.046;17.802;2023-12-28T15:15:15;37.55;;;16.35;;
74791;SDS011;63319;46.046;17.802;2023-12-28T15:18:18;33.80;;;16.53;;
74791;SDS011;63319;46.046;17.802;2023-12-28T15:21:22;41.92;;;20.90;;
74791;SDS011;63319;46.046;17.802;2023-12-28T15:24:25;46.55;;;22.38;;
74791;SDS011;63319;46.046;17.802;2023-12-28T15:27:28;53.83;;;28.67;;
74791;SDS011;63319;46.046;17.802;2023-12-28T15:30:31;46.47;;;24.88;;
74791;SDS011;63319;46.046;17.802;2023-12-28T15:33:34;30.52;;;18.02;;
74791;SDS011;63319;46.046;17.802;2023-12-28T15:36:37;23.92;;;14.48;;
74791;SDS011;63319;46.046;17.802;2023-12-28T15:39:40;20.10;;;11.60;;
74791;SDS011;63319;46.046;17.802;2023-12-28T15:42:45;28.58;;;13.52;;
74791;SDS011;63319;46.046;17.802;2023-12-28T15:45:51;34.03;;;18.35;;
74791;SDS011;63319;46.046;17.802;2023-12-28T15:48:53;32.30;;;16.73;;
74791;SDS011;63319;46.046;17.802;2023-12-28T15:51:57;40.08;;;22.85;;
74791;SDS011;63319;46.046;17.802;2023-12-28T15:54:59;43.85;;;21.95;;
74791;SDS011;63319;46.046;17.802;2023-12-28T15:58:03;42.23;;;24.17;;
74791;SDS011;63319;46.046;17.802;2023-12-28T16:01:06;50.33;;;26.42;;
74791;SDS011;63319;46.046;17.802;2023-12-28T16:04:09;51.58;;;27.90;;
74791;SDS011;63319;46.046;17.802;2023-12-28T16:07:11;51.35;;;29.75;;
74791;SDS011;63319;46.046;17.802;2023-12-28T16:10:15;56.03;;;29.45;;
74791;SDS011;63319;46.046;17.802;2023-12-28T16:13:18;63.15;;;34.00;;
74791;SDS011;63319;46.046;17.802;2023-12-28T16:16:21;69.20;;;36.05;;
74791;SDS011;63319;46.046;17.802;2023-12-28T16:19:24;64.37;;;31.27;;
74791;SDS011;63319;46.046;17.802;2023-12-28T16:22:28;59.85;;;32.60;;
74791;SDS011;63319;46.046;17.802;2023-12-28T16:25:32;78.72;;;37.50;;
74791;SDS011;63319;46.046;17.802;2023-12-28T16:28:36;113.30;;;51.53;;
74791;SDS011;63319;46.046;17.802;2023-12-28T16:31:39;104.65;;;49.92;;
74791;SDS011;63319;46.046;17.802;2023-12-28T16:34:43;69.40;;;35.90;;
74791;SDS011;63319;46.046;17.802;2023-12-28T16:37:46;56.90;;;29.00;;
74791;SDS011;63319;46.046;17.802;2023-12-28T16:40:49;73.80;;;37.85;;
74791;SDS011;63319;46.046;17.802;2023-12-28T16:43:52;63.28;;;32.97;;
74791;SDS011;63319;46.046;17.802;2023-12-28T16:46:55;61.08;;;30.50;;
74791;SDS011;63319;46.046;17.802;2023-12-28T16:50:00;86.73;;;41.67;;
74791;SDS011;63319;46.046;17.802;2023-12-28T16:53:04;52.92;;;27.65;;
74791;SDS011;63319;46.046;17.802;2023-12-28T16:56:07;50.55;;;24.42;;
74791;SDS011;63319;46.046;17.802;2023-12-28T16:59:10;54.30;;;27.93;;
74791;SDS011;63319;46.046;17.802;2023-12-28T17:02:13;42.92;;;22.13;;
74791;SDS011;63319;46.046;17.802;2023-12-28T17:05:16;39.67;;;21.55;;
74791;SDS011;63319;46.046;17.802;2023-12-28T17:08:19;39.92;;;22.10;;
74791;SDS011;63319;46.046;17.802;2023-12-28T17:11:23;42.05;;;22.58;;
74791;SDS011;63319;46.046;17.802;2023-12-28T17:14:25;50.63;;;25.17;;
74791;SDS011;63319;46.046;17.802;2023-12-28T17:17:29;41.22;;;22.67;;
74791;SDS011;63319;46.046;17.802;2023-12-28T17:20:32;39.73;;;19.30;;
74791;SDS011;63319;46.046;17.802;2023-12-28T17:23:36;29.13;;;14.27;;
74791;SDS011;63319;46.046;17.802;2023-12-28T17:26:47;35.20;;;19.77;;
74791;SDS011;63319;46.046;17.802;2023-12-28T17:30:00;51.57;;;26.23;;
74791;SDS011;63319;46.046;17.802;2023-12-28T17:33:05;48.75;;;24.35;;
74791;SDS011;63319;46.046;17.802;2023-12-28T17:36:09;47.78;;;23.17;;
74791;SDS011;63319;46.046;17.802;2023-12-28T17:39:16;45.25;;;23.23;;
74791;SDS011;63319;46.046;17.802;2023-12-28T17:42:22;45.72;;;22.02;;
74791;SDS011;63319;46.046;17.802;2023-12-28T17:45:42;59.75;;;30.33;;
74791;SDS011;63319;46.046;17.802;2023-12-28T17:48:58;57.80;;;30.42;;